sensor_id;sensor_type;location;lat;lon;timestamp;pressure;altitude;pressure_sealevel;temperature;humidity
9415;BME280;4746;35.664;139.738;2023-06-22T00:01:22;99927.81;;;28.93;44.26
9415;BME280;4746;35.664;139.738;2023-06-22T00:03:50;99925.72;;;28.85;44.16
9415;BME280;4746;35.664;139.738;2023-06-22T00:06:17;99925.44;;;28.78;44.35
9415;BME280;4746;35.664;139.738;2023-06-22T00:08:45;99920.69;;;28.70;44.62
9415;BME280;4746;35.664;139.738;2023-06-22T00:11:12;99925.53;;;28.64;44.77
9415;BME280;4746;35.664;139.738;2023-06-22T00:13:40;99929.38;;;28.47;44.82
9415;BME280;4746;35.664;139.738;2023-06-22T00:16:08;99930.22;;;28.35;45.08
9415;BME280;4746;35.664;139.738;2023-06-22T00:18:35;99929.06;;;28.27;45.03
9415;BME280;4746;35.664;139.738;2023-06-22T00:21:03;99936.22;;;28.12;45.26
9415;BME280;4746;35.664;139.738;2023-06-22T00:23:31;99925.97;;;28.08;45.40
9415;BME280;4746;35.664;139.738;2023-06-22T00:26:02;99924.28;;;28.07;44.91
9415;BME280;4746;35.664;139.738;2023-06-22T00:28:30;99926.16;;;28.05;44.70
9415;BME280;4746;35.664;139.738;2023-06-22T00:30:57;99921.66;;;28.07;43.72
9415;BME280;4746;35.664;139.738;2023-06-22T00:33:25;99920.81;;;28.07;43.73
9415;BME280;4746;35.664;139.738;2023-06-22T00:35:52;99918.06;;;28.08;43.14
9415;BME280;4746;35.664;139.738;2023-06-22T00:38:20;99916.72;;;28.15;42.85
9415;BME280;4746;35.664;139.738;2023-06-22T00:40:48;99919.66;;;28.23;42.30
9415;BME280;4746;35.664;139.738;2023-06-22T00:43:15;99919.78;;;28.34;41.69
9415;BME280;4746;35.664;139.738;2023-06-22T00:45:43;99930.19;;;28.48;41.58
9415;BME280;4746;35.664;139.738;2023-06-22T00:48:12;99940.75;;;28.60;41.56
9415;BME280;4746;35.664;139.738;2023-06-22T00:50:41;99946.94;;;28.72;41.95
9415;BME280;4746;35.664;139.738;2023-06-22T00:53:10;99947.66;;;28.86;41.75
9415;BME280;4746;35.664;139.738;2023-06-22T00:55:42;99951.94;;;28.99;41.20
9415;BME280;4746;35.664;139.738;2023-06-22T00:58:12;99942.75;;;29.05;41.67
9415;BME280;4746;35.664;139.738;2023-06-22T01:00:41;99939.81;;;29.09;40.47
9415;BME280;4746;35.664;139.738;2023-06-22T01:03:09;99929.00;;;29.12;40.89
9415;BME280;4746;35.664;139.738;2023-06-22T01:05:38;99917.66;;;29.23;40.23
9415;BME280;4746;35.664;139.738;2023-06-22T01:11:32;99921.28;;;29.45;39.47
9415;BME280;4746;35.664;139.738;2023-06-22T01:14:14;99926.50;;;29.57;39.16
9415;BME280;4746;35.664;139.738;2023-06-22T01:16:46;99922.59;;;29.74;38.37
9415;BME280;4746;35.664;139.738;2023-06-22T01:19:50;99901.53;;;30.18;38.25
9415;BME280;4746;35.664;139.738;2023-06-22T01:22:35;99901.53;;;30.39;37.28
9415;BME280;4746;35.664;139.738;2023-06-22T01:25:20;99893.75;;;30.60;36.86
9415;BME280;4746;35.664;139.738;2023-06-22T01:28:17;99896.59;;;30.79;36.38
9415;BME280;4746;35.664;139.738;2023-06-22T01:30:49;99906.84;;;30.83;35.07
9415;BME280;4746;35.664;139.738;2023-06-22T01:33:33;99913.19;;;30.92;34.21
9415;BME280;4746;35.664;139.738;2023-06-22T01:36:03;99917.41;;;31.05;33.59
9415;BME280;4746;35.664;139.738;2023-06-22T01:38:33;99928.09;;;31.14;32.68
9415;BME280;4746;35.664;139.738;2023-06-22T01:41:01;99915.66;;;31.26;32.78
9415;BME280;4746;35.664;139.738;2023-06-22T01:43:30;99914.91;;;31.35;32.68
9415;BME280;4746;35.664;139.738;2023-06-22T01:46:03;99912.84;;;31.38;32.38
9415;BME280;4746;35.664;139.738;2023-06-22T01:48:31;99921.16;;;31.34;32.78
9415;BME280;4746;35.664;139.738;2023-06-22T01:50:59;99923.56;;;31.37;32.06
9415;BME280;4746;35.664;139.738;2023-06-22T01:53:27;99919.97;;;31.38;31.81
9415;BME280;4746;35.664;139.738;2023-06-22T01:55:55;99924.47;;;31.47;31.74
9415;BME280;4746;35.664;139.738;2023-06-22T01:58:27;99910.41;;;31.46;31.60
9415;BME280;4746;35.664;139.738;2023-06-22T02:01:11;99906.19;;;31.55;31.66
9415;BME280;4746;35.664;139.738;2023-06-22T02:03:50;99903.03;;;31.50;31.80
9415;BME280;4746;35.664;139.738;2023-06-22T02:06:34;99883.44;;;31.52;32.32
9415;BME280;4746;35.664;139.738;2023-06-22T02:09:11;99881.38;;;31.45;32.03
9415;BME280;4746;35.664;139.738;2023-06-22T02:11:43;99875.75;;;31.38;32.45
9415;BME280;4746;35.664;139.738;2023-06-22T02:14:12;99872.28;;;31.38;32.12
9415;BME280;4746;35.664;139.738;2023-06-22T02:16:42;99868.97;;;31.45;32.26
9415;BME280;4746;35.664;139.738;2023-06-22T02:19:10;99862.59;;;31.48;32.57
9415;BME280;4746;35.664;139.738;2023-06-22T02:21:37;99861.25;;;31.53;32.25
9415;BME280;4746;35.664;139.738;2023-06-22T02:24:05;99853.34;;;31.63;32.59
9415;BME280;4746;35.664;139.738;2023-06-22T02:26:33;99851.22;;;31.77;32.67
9415;BME280;4746;35.664;139.738;2023-06-22T02:29:01;99852.66;;;31.81;32.63
9415;BME280;4746;35.664;139.738;2023-06-22T02:31:29;99860.91;;;31.87;32.88
9415;BME280;4746;35.664;139.738;2023-06-22T02:34:00;99856.78;;;31.94;32.47
9415;BME280;4746;35.664;139.738;2023-06-22T02:36:28;99848.38;;;31.89;32.91
9415;BME280;4746;35.664;139.738;2023-06-22T02:38:57;99842.44;;;31.76;33.31
9415;BME280;4746;35.664;139.738;2023-06-22T02:41:25;99830.47;;;31.62;34.35
9415;BME280;4746;35.664;139.738;2023-06-22T02:43:53;99834.16;;;31.50;34.62
9415;BME280;4746;35.664;139.738;2023-06-22T02:46:20;99836.31;;;31.24;36.80
9415;BME280;4746;35.664;139.738;2023-06-22T02:48:48;99842.81;;;30.89;38.93
9415;BME280;4746;35.664;139.738;2023-06-22T02:51:16;99842.66;;;30.48;39.92
9415;BME280;4746;35.664;139.738;2023-06-22T02:53:44;99840.84;;;30.16;40.45
9415;BME280;4746;35.664;139.738;2023-06-22T02:56:12;99826.66;;;29.95;41.42
9415;BME280;4746;35.664;139.738;2023-06-22T02:58:39;99821.16;;;29.98;41.96
9415;BME280;4746;35.664;139.738;2023-06-22T03:01:07;99832.31;;;30.02;42.35
9415;BME280;4746;35.664;139.738;2023-06-22T03:03:35;99822.22;;;29.96;41.95
9415;BME280;4746;35.664;139.738;2023-06-22T03:06:02;99823.63;;;29.78;42.13
9415;BME280;4746;35.664;139.738;2023-06-22T03:08:30;99818.06;;;29.59;42.70
9415;BME280;4746;35.664;139.738;2023-06-22T03:10:57;99828.13;;;29.43;42.97
9415;BME280;4746;35.664;139.738;2023-06-22T03:13:27;99821.44;;;29.50;43.62
9415;BME280;4746;35.664;139.738;2023-06-22T03:15:55;99819.41;;;29.54;43.38
9415;BME280;4746;35.664;139.738;2023-06-22T03:18:22;99813.25;;;29.53;43.13
9415;BME280;4746;35.664;139.738;2023-06-22T03:20:50;99822.53;;;29.58;43.32
9415;BME280;4746;35.664;139.738;2023-06-22T03:23:19;99819.75;;;29.60;43.41
9415;BME280;4746;35.664;139.738;2023-06-22T03:25:46;99819.97;;;29.57;42.72
9415;BME280;4746;35.664;139.738;2023-06-22T03:28:14;99818.69;;;29.62;42.96
9415;BME280;4746;35.664;139.738;2023-06-22T03:30:42;99826.88;;;29.70;42.05
9415;BME280;4746;35.664;139.738;2023-06-22T03:33:09;99824.09;;;29.72;42.53
9415;BME280;4746;35.664;139.738;2023-06-22T03:35:36;99824.09;;;29.72;42.27
9415;BME280;4746;35.664;139.738;2023-06-22T03:38:05;99828.31;;;29.74;42.24
9415;BME280;4746;35.664;139.738;2023-06-22T03:40:32;99822.41;;;29.71;41.94
9415;BME280;4746;35.664;139.738;2023-06-22T03:43:00;99823.84;;;29.75;42.08
9415;BME280;4746;35.664;139.738;2023-06-22T03:45:27;99824.09;;;29.83;41.63
9415;BME280;4746;35.664;139.738;2023-06-22T03:47:55;99826.19;;;29.90;41.83
9415;BME280;4746;35.664;139.738;2023-06-22T03:50:22;99823.97;;;29.84;41.92
9415;BME280;4746;35.664;139.738;2023-06-22T03:52:50;99824.09;;;29.83;42.03
9415;BME280;4746;35.664;139.738;2023-06-22T03:55:20;99825.53;;;29.87;42.01
9415;BME280;4746;35.664;139.738;2023-06-22T03:57:48;99828.44;;;29.84;41.77
9415;BME280;4746;35.664;139.738;2023-06-22T04:00:15;99836.84;;;29.89;42.19
9415;BME280;4746;35.664;139.738;2023-06-22T04:02:43;99837.81;;;29.88;42.26
9415;BME280;4746;35.664;139.738;2023-06-22T04:05:11;99829.25;;;29.84;41.98
9415;BME280;4746;35.664;139.738;2023-06-22T04:07:39;99830.34;;;29.82;41.91
9415;BME280;4746;35.664;139.738;2023-06-22T04:10:07;99829.75;;;29.78;42.19
9415;BME280;4746;35.664;139.738;2023-06-22T04:12:35;99829.03;;;29.76;42.40
9415;BME280;4746;35.664;139.738;2023-06-22T04:15:03;99843.31;;;29.74;42.13
9415;BME280;4746;35.664;139.738;2023-06-22T04:17:32;99837.63;;;29.56;42.45
9415;BME280;4746;35.664;139.738;2023-06-22T04:20:00;99831.66;;;29.31;43.17
9415;BME280;4746;35.664;139.738;2023-06-22T04:22:27;99823.81;;;29.19;43.16
9415;BME280;4746;35.664;139.738;2023-06-22T04:24:55;99817.94;;;29.15;42.70
9415;BME280;4746;35.664;139.738;2023-06-22T04:27:26;99809.00;;;29.05;43.39
9415;BME280;4746;35.664;139.738;2023-06-22T04:29:54;99792.91;;;28.97;43.36
9415;BME280;4746;35.664;139.738;2023-06-22T04:32:21;99801.97;;;28.93;43.67
9415;BME280;4746;35.664;139.738;2023-06-22T04:34:49;99791.44;;;28.93;44.18
9415;BME280;4746;35.664;139.738;2023-06-22T04:37:16;99783.00;;;28.88;44.07
9415;BME280;4746;35.664;139.738;2023-06-22T04:39:44;99768.88;;;28.89;44.23
9415;BME280;4746;35.664;139.738;2023-06-22T04:42:13;99764.53;;;28.88;44.21
9415;BME280;4746;35.664;139.738;2023-06-22T04:44:40;99763.38;;;28.92;44.58
9415;BME280;4746;35.664;139.738;2023-06-22T04:47:09;99767.19;;;28.88;44.50
9415;BME280;4746;35.664;139.738;2023-06-22T04:49:37;99770.16;;;28.84;44.29
9415;BME280;4746;35.664;139.738;2023-06-22T04:52:13;99772.41;;;28.78;44.34
9415;BME280;4746;35.664;139.738;2023-06-22T04:54:45;99775.47;;;28.72;44.90
9415;BME280;4746;35.664;139.738;2023-06-22T04:57:14;99775.59;;;28.70;44.57
9415;BME280;4746;35.664;139.738;2023-06-22T04:59:42;99772.09;;;28.70;44.80
9415;BME280;4746;35.664;139.738;2023-06-22T05:02:11;99764.72;;;28.75;45.24
9415;BME280;4746;35.664;139.738;2023-06-22T05:04:38;99763.25;;;28.71;45.27
9415;BME280;4746;35.664;139.738;2023-06-22T05:07:06;99757.47;;;28.66;45.04
9415;BME280;4746;35.664;139.738;2023-06-22T05:09:35;99757.84;;;28.49;45.25
9415;BME280;4746;35.664;139.738;2023-06-22T05:12:03;99757.31;;;28.33;45.15
9415;BME280;4746;35.664;139.738;2023-06-22T05:14:31;99761.94;;;28.17;46.08
9415;BME280;4746;35.664;139.738;2023-06-22T05:16:59;99764.50;;;28.06;45.54
9415;BME280;4746;35.664;139.738;2023-06-22T05:19:30;99767.06;;;27.95;46.15
9415;BME280;4746;35.664;139.738;2023-06-22T05:22:00;99756.53;;;27.83;46.53
9415;BME280;4746;35.664;139.738;2023-06-22T05:24:27;99755.41;;;27.74;46.70
9415;BME280;4746;35.664;139.738;2023-06-22T05:26:55;99747.28;;;27.65;46.91
9415;BME280;4746;35.664;139.738;2023-06-22T05:29:22;99744.31;;;27.57;46.89
9415;BME280;4746;35.664;139.738;2023-06-22T05:31:50;99740.09;;;27.54;46.89
9415;BME280;4746;35.664;139.738;2023-06-22T05:34:17;99739.56;;;27.49;47.02
9415;BME280;4746;35.664;139.738;2023-06-22T05:36:45;99732.09;;;27.43;47.05
9415;BME280;4746;35.664;139.738;2023-06-22T05:39:14;99724.19;;;27.43;47.59
9415;BME280;4746;35.664;139.738;2023-06-22T05:41:42;99714.44;;;27.45;47.28
9415;BME280;4746;35.664;139.738;2023-06-22T05:44:10;99710.50;;;27.51;47.52
9415;BME280;4746;35.664;139.738;2023-06-22T05:46:42;99707.44;;;27.57;47.33
9415;BME280;4746;35.664;139.738;2023-06-22T05:49:14;99709.44;;;27.53;47.49
9415;BME280;4746;35.664;139.738;2023-06-22T05:51:42;99705.34;;;27.49;47.44
9415;BME280;4746;35.664;139.738;2023-06-22T05:54:10;99705.34;;;27.49;47.34
9415;BME280;4746;35.664;139.738;2023-06-22T05:56:41;99717.78;;;27.47;47.65
9415;BME280;4746;35.664;139.738;2023-06-22T05:59:09;99709.59;;;27.39;47.84
9415;BME280;4746;35.664;139.738;2023-06-22T06:01:36;99720.31;;;27.37;47.99
9415;BME280;4746;35.664;139.738;2023-06-22T06:04:04;99726.31;;;27.38;48.08
9415;BME280;4746;35.664;139.738;2023-06-22T06:06:32;99720.13;;;27.39;48.14
9415;BME280;4746;35.664;139.738;2023-06-22T06:09:02;99706.00;;;27.40;48.41
9415;BME280;4746;35.664;139.738;2023-06-22T06:11:29;99707.38;;;27.34;48.84
9415;BME280;4746;35.664;139.738;2023-06-22T06:13:57;99703.47;;;27.27;48.76
9415;BME280;4746;35.664;139.738;2023-06-22T06:16:24;99701.69;;;27.15;49.43
9415;BME280;4746;35.664;139.738;2023-06-22T06:18:51;99693.38;;;27.08;49.60
9415;BME280;4746;35.664;139.738;2023-06-22T06:21:21;99697.13;;;27.04;50.06
9415;BME280;4746;35.664;139.738;2023-06-22T06:23:49;99684.41;;;26.98;50.31
9415;BME280;4746;35.664;139.738;2023-06-22T06:26:17;99687.41;;;26.92;50.58
9415;BME280;4746;35.664;139.738;2023-06-22T06:28:46;99689.63;;;26.86;50.58
9415;BME280;4746;35.664;139.738;2023-06-22T06:31:13;99684.97;;;26.77;50.62
9415;BME280;4746;35.664;139.738;2023-06-22T06:33:43;99683.91;;;26.67;51.48
9415;BME280;4746;35.664;139.738;2023-06-22T06:36:11;99686.09;;;26.61;51.87
9415;BME280;4746;35.664;139.738;2023-06-22T06:38:38;99686.41;;;26.56;52.38
9415;BME280;4746;35.664;139.738;2023-06-22T06:41:06;99688.28;;;26.54;52.34
9415;BME280;4746;35.664;139.738;2023-06-22T06:43:34;99688.50;;;26.51;52.79
9415;BME280;4746;35.664;139.738;2023-06-22T06:46:04;99680.06;;;26.46;53.02
9415;BME280;4746;35.664;139.738;2023-06-22T06:48:31;99676.69;;;26.44;53.19
9415;BME280;4746;35.664;139.738;2023-06-22T06:50:59;99668.81;;;26.44;53.54
9415;BME280;4746;35.664;139.738;2023-06-22T06:53:26;99657.56;;;26.42;54.02
9415;BME280;4746;35.664;139.738;2023-06-22T06:55:55;99653.44;;;26.38;54.06
9415;BME280;4746;35.664;139.738;2023-06-22T06:58:23;99654.28;;;26.39;54.32
9415;BME280;4746;35.664;139.738;2023-06-22T07:00:50;99644.41;;;26.42;53.79
9415;BME280;4746;35.664;139.738;2023-06-22T07:03:18;99638.22;;;26.43;54.49
9415;BME280;4746;35.664;139.738;2023-06-22T07:05:48;99638.03;;;26.46;54.21
9415;BME280;4746;35.664;139.738;2023-06-22T07:08:15;99639.69;;;26.47;54.29
9415;BME280;4746;35.664;139.738;2023-06-22T07:10:43;99638.56;;;26.51;54.32
9415;BME280;4746;35.664;139.738;2023-06-22T07:13:10;99636.47;;;26.56;54.73
9415;BME280;4746;35.664;139.738;2023-06-22T07:15:38;99634.38;;;26.61;54.67
9415;BME280;4746;35.664;139.738;2023-06-22T07:18:06;99627.63;;;26.57;54.85
9415;BME280;4746;35.664;139.738;2023-06-22T07:20:33;99619.63;;;26.59;54.74
9415;BME280;4746;35.664;139.738;2023-06-22T07:23:01;99615.22;;;26.59;54.27
9415;BME280;4746;35.664;139.738;2023-06-22T07:25:29;99616.19;;;26.58;54.74
9415;BME280;4746;35.664;139.738;2023-06-22T07:28:06;99621.22;;;26.61;54.50
9415;BME280;4746;35.664;139.738;2023-06-22T07:30:34;99615.44;;;26.56;54.68
9415;BME280;4746;35.664;139.738;2023-06-22T07:33:02;99618.25;;;26.53;54.46
9415;BME280;4746;35.664;139.738;2023-06-22T07:35:31;99617.53;;;26.51;54.99
9415;BME280;4746;35.664;139.738;2023-06-22T07:38:00;99622.03;;;26.49;54.91
9415;BME280;4746;35.664;139.738;2023-06-22T07:40:30;99620.88;;;26.53;54.80
9415;BME280;4746;35.664;139.738;2023-06-22T07:42:58;99614.69;;;26.54;54.52
9415;BME280;4746;35.664;139.738;2023-06-22T07:45:25;99619.22;;;26.52;54.65
9415;BME280;4746;35.664;139.738;2023-06-22T07:47:53;99619.00;;;26.43;54.67
9415;BME280;4746;35.664;139.738;2023-06-22T07:50:20;99635.41;;;26.46;54.50
9415;BME280;4746;35.664;139.738;2023-06-22T07:52:48;99632.84;;;26.45;54.49
9415;BME280;4746;35.664;139.738;2023-06-22T07:55:15;99632.97;;;26.43;54.40
9415;BME280;4746;35.664;139.738;2023-06-22T07:57:43;99637.06;;;26.47;55.07
9415;BME280;4746;35.664;139.738;2023-06-22T08:00:11;99633.50;;;26.48;54.73
9415;BME280;4746;35.664;139.738;2023-06-22T08:02:45;99640.25;;;26.52;54.89
9415;BME280;4746;35.664;139.738;2023-06-22T08:05:14;99641.31;;;26.62;54.39
9415;BME280;4746;35.664;139.738;2023-06-22T08:07:41;99640.06;;;26.67;54.84
9415;BME280;4746;35.664;139.738;2023-06-22T08:10:14;99642.19;;;26.75;54.46
9415;BME280;4746;35.664;139.738;2023-06-22T08:12:42;99638.06;;;26.71;54.72
9415;BME280;4746;35.664;139.738;2023-06-22T08:15:10;99640.91;;;26.68;54.86
9415;BME280;4746;35.664;139.738;2023-06-22T08:17:38;99639.84;;;26.70;54.90
9415;BME280;4746;35.664;139.738;2023-06-22T08:20:07;99631.44;;;26.66;54.60
9415;BME280;4746;35.664;139.738;2023-06-22T08:22:42;99627.63;;;26.57;54.82
9415;BME280;4746;35.664;139.738;2023-06-22T08:25:12;99626.75;;;26.44;54.78
9415;BME280;4746;35.664;139.738;2023-06-22T08:27:40;99640.56;;;26.34;55.20
9415;BME280;4746;35.664;139.738;2023-06-22T08:30:09;99625.03;;;26.31;55.39
9415;BME280;4746;35.664;139.738;2023-06-22T08:32:37;99628.16;;;26.23;55.39
9415;BME280;4746;35.664;139.738;2023-06-22T08:35:05;99635.88;;;26.12;55.81
9415;BME280;4746;35.664;139.738;2023-06-22T08:37:36;99639.06;;;26.17;55.76
9415;BME280;4746;35.664;139.738;2023-06-22T08:40:08;99634.66;;;26.18;56.10
9415;BME280;4746;35.664;139.738;2023-06-22T08:42:37;99635.03;;;26.12;55.78
9415;BME280;4746;35.664;139.738;2023-06-22T08:45:05;99635.97;;;26.11;55.95
9415;BME280;4746;35.664;139.738;2023-06-22T08:47:33;99630.06;;;26.07;56.09
9415;BME280;4746;35.664;139.738;2023-06-22T08:50:01;99632.06;;;26.04;56.56
9415;BME280;4746;35.664;139.738;2023-06-22T08:52:31;99643.59;;;26.01;55.99
9415;BME280;4746;35.664;139.738;2023-06-22T08:54:59;99624.50;;;25.99;56.63
9415;BME280;4746;35.664;139.738;2023-06-22T08:57:27;99619.44;;;25.96;56.71
9415;BME280;4746;35.664;139.738;2023-06-22T08:59:55;99614.56;;;25.91;57.10
9415;BME280;4746;35.664;139.738;2023-06-22T09:02:26;99620.03;;;25.88;56.87
9415;BME280;4746;35.664;139.738;2023-06-22T09:04:58;99616.88;;;25.83;56.77
9415;BME280;4746;35.664;139.738;2023-06-22T09:07:25;99624.28;;;25.76;56.66
9415;BME280;4746;35.664;139.738;2023-06-22T09:09:53;99621.56;;;25.64;56.74
9415;BME280;4746;35.664;139.738;2023-06-22T09:12:21;99622.41;;;25.64;57.09
9415;BME280;4746;35.664;139.738;2023-06-22T09:14:53;99621.03;;;25.59;56.65
9415;BME280;4746;35.664;139.738;2023-06-22T09:17:21;99614.56;;;25.50;57.20
9415;BME280;4746;35.664;139.738;2023-06-22T09:19:48;99605.50;;;25.42;57.37
9415;BME280;4746;35.664;139.738;2023-06-22T09:22:16;99606.06;;;25.33;57.85
9415;BME280;4746;35.664;139.738;2023-06-22T09:24:44;99600.34;;;25.26;57.84
9415;BME280;4746;35.664;139.738;2023-06-22T09:27:11;99598.94;;;25.21;57.78
9415;BME280;4746;35.664;139.738;2023-06-22T09:29:39;99598.28;;;25.18;57.88
9415;BME280;4746;35.664;139.738;2023-06-22T09:32:07;99607.00;;;25.18;57.55
9415;BME280;4746;35.664;139.738;2023-06-22T09:34:34;99614.28;;;25.13;58.05
9415;BME280;4746;35.664;139.738;2023-06-22T09:37:02;99619.53;;;25.13;58.18
9415;BME280;4746;35.664;139.738;2023-06-22T09:39:29;99612.81;;;25.09;58.62
9415;BME280;4746;35.664;139.738;2023-06-22T09:41:59;99612.63;;;25.12;58.54
9415;BME280;4746;35.664;139.738;2023-06-22T09:44:27;99617.47;;;25.04;59.19
9415;BME280;4746;35.664;139.738;2023-06-22T09:46:55;99608.66;;;25.05;59.04
9415;BME280;4746;35.664;139.738;2023-06-22T09:49:22;99607.56;;;25.09;59.15
9415;BME280;4746;35.664;139.738;2023-06-22T09:51:50;99613.16;;;25.03;59.48
9415;BME280;4746;35.664;139.738;2023-06-22T09:54:17;99627.13;;;25.04;59.23
9415;BME280;4746;35.664;139.738;2023-06-22T09:56:45;99629.91;;;25.01;59.22
9415;BME280;4746;35.664;139.738;2023-06-22T09:59:12;99636.19;;;24.98;59.47
9415;BME280;4746;35.664;139.738;2023-06-22T10:01:40;99634.75;;;24.93;59.23
9415;BME280;4746;35.664;139.738;2023-06-22T10:04:07;99650.97;;;24.85;59.99
9415;BME280;4746;35.664;139.738;2023-06-22T10:06:35;99654.88;;;24.78;60.10
9415;BME280;4746;35.664;139.738;2023-06-22T10:09:02;99655.91;;;24.76;59.81
9415;BME280;4746;35.664;139.738;2023-06-22T10:11:30;99661.78;;;24.65;60.21
9415;BME280;4746;35.664;139.738;2023-06-22T10:13:58;99663.34;;;24.54;60.08
9415;BME280;4746;35.664;139.738;2023-06-22T10:16:31;99665.47;;;24.48;60.85
9415;BME280;4746;35.664;139.738;2023-06-22T10:18:59;99647.72;;;24.37;61.01
9415;BME280;4746;35.664;139.738;2023-06-22T10:21:27;99637.59;;;24.31;60.54
9415;BME280;4746;35.664;139.738;2023-06-22T10:23:55;99639.88;;;24.22;61.30
9415;BME280;4746;35.664;139.738;2023-06-22T10:26:23;99647.41;;;24.12;61.29
9415;BME280;4746;35.664;139.738;2023-06-22T10:28:51;99630.97;;;24.10;61.32
9415;BME280;4746;35.664;139.738;2023-06-22T10:31:18;99643.22;;;24.10;61.76
9415;BME280;4746;35.664;139.738;2023-06-22T10:33:46;99640.44;;;24.13;62.45
9415;BME280;4746;35.664;139.738;2023-06-22T10:36:16;99642.03;;;24.15;62.45
9415;BME280;4746;35.664;139.738;2023-06-22T10:38:44;99631.72;;;24.12;62.28
9415;BME280;4746;35.664;139.738;2023-06-22T10:41:12;99637.19;;;24.08;62.97
9415;BME280;4746;35.664;139.738;2023-06-22T10:43:39;99645.72;;;24.11;62.81
9415;BME280;4746;35.664;139.738;2023-06-22T10:46:08;99643.97;;;24.12;62.61
9415;BME280;4746;35.664;139.738;2023-06-22T10:48:36;99633.66;;;24.09;62.63
9415;BME280;4746;35.664;139.738;2023-06-22T10:51:04;99630.31;;;24.07;62.68
9415;BME280;4746;35.664;139.738;2023-06-22T10:53:32;99618.88;;;24.08;62.95
9415;BME280;4746;35.664;139.738;2023-06-22T10:55:59;99627.16;;;24.00;62.60
9415;BME280;4746;35.664;139.738;2023-06-22T10:58:27;99630.03;;;23.96;62.91
9415;BME280;4746;35.664;139.738;2023-06-22T11:00:54;99628.88;;;23.86;63.05
9415;BME280;4746;35.664;139.738;2023-06-22T11:03:22;99642.38;;;23.79;62.78
9415;BME280;4746;35.664;139.738;2023-06-22T11:05:49;99645.25;;;23.74;62.77
9415;BME280;4746;35.664;139.738;2023-06-22T11:08:17;99660.56;;;23.65;62.98
9415;BME280;4746;35.664;139.738;2023-06-22T11:10:45;99657.69;;;23.54;62.72
9415;BME280;4746;35.664;139.738;2023-06-22T11:13:12;99669.00;;;23.39;62.92
9415;BME280;4746;35.664;139.738;2023-06-22T11:15:40;99673.78;;;23.31;63.26
9415;BME280;4746;35.664;139.738;2023-06-22T11:18:07;99675.09;;;23.22;63.53
9415;BME280;4746;35.664;139.738;2023-06-22T11:20:35;99674.50;;;23.17;63.33
9415;BME280;4746;35.664;139.738;2023-06-22T11:23:08;99678.03;;;23.16;63.47
9415;BME280;4746;35.664;139.738;2023-06-22T11:25:36;99662.69;;;23.10;63.78
9415;BME280;4746;35.664;139.738;2023-06-22T11:28:05;99636.72;;;23.08;63.57
9415;BME280;4746;35.664;139.738;2023-06-22T11:30:32;99657.06;;;23.01;64.13
9415;BME280;4746;35.664;139.738;2023-06-22T11:33:00;99657.06;;;23.01;64.02
9415;BME280;4746;35.664;139.738;2023-06-22T11:35:28;99664.16;;;22.99;64.11
9415;BME280;4746;35.664;139.738;2023-06-22T11:37:55;99662.50;;;22.97;64.27
9415;BME280;4746;35.664;139.738;2023-06-22T11:40:23;99663.19;;;23.00;64.67
9415;BME280;4746;35.664;139.738;2023-06-22T11:42:50;99657.22;;;22.98;64.21
9415;BME280;4746;35.664;139.738;2023-06-22T11:45:19;99668.50;;;22.99;64.59
9415;BME280;4746;35.664;139.738;2023-06-22T11:47:47;99666.75;;;22.99;64.58
9415;BME280;4746;35.664;139.738;2023-06-22T11:50:15;99660.75;;;22.97;64.28
9415;BME280;4746;35.664;139.738;2023-06-22T11:52:43;99656.53;;;22.95;64.34
9415;BME280;4746;35.664;139.738;2023-06-22T11:55:10;99655.75;;;22.93;64.43
9415;BME280;4746;35.664;139.738;2023-06-22T11:57:53;99649.63;;;22.94;64.53
9415;BME280;4746;35.664;139.738;2023-06-22T12:00:22;99649.09;;;22.87;65.11
9415;BME280;4746;35.664;139.738;2023-06-22T12:02:54;99655.16;;;22.88;64.95
9415;BME280;4746;35.664;139.738;2023-06-22T12:05:22;99648.41;;;22.84;64.92
9415;BME280;4746;35.664;139.738;2023-06-22T12:07:53;99654.38;;;22.86;64.94
9415;BME280;4746;35.664;139.738;2023-06-22T12:10:24;99650.25;;;22.82;64.86
9415;BME280;4746;35.664;139.738;2023-06-22T12:12:52;99649.56;;;22.78;65.13
9415;BME280;4746;35.664;139.738;2023-06-22T12:15:20;99647.03;;;22.77;64.90
9415;BME280;4746;35.664;139.738;2023-06-22T12:17:49;99640.28;;;22.73;64.96
9415;BME280;4746;35.664;139.738;2023-06-22T12:20:17;99663.00;;;22.71;64.80
9415;BME280;4746;35.664;139.738;2023-06-22T12:22:45;99670.25;;;22.66;64.84
9415;BME280;4746;35.664;139.738;2023-06-22T12:25:14;99653.97;;;22.61;65.16
9415;BME280;4746;35.664;139.738;2023-06-22T12:27:41;99646.94;;;22.61;65.06
9415;BME280;4746;35.664;139.738;2023-06-22T12:30:09;99635.38;;;22.67;65.24
9415;BME280;4746;35.664;139.738;2023-06-22T12:32:38;99626.56;;;22.68;65.36
9415;BME280;4746;35.664;139.738;2023-06-22T12:35:06;99610.75;;;22.71;65.55
9415;BME280;4746;35.664;139.738;2023-06-22T12:37:39;99616.69;;;22.74;65.38
9415;BME280;4746;35.664;139.738;2023-06-22T12:40:07;99610.59;;;22.74;65.28
9415;BME280;4746;35.664;139.738;2023-06-22T12:42:35;99590.66;;;22.73;64.83
9415;BME280;4746;35.664;139.738;2023-06-22T12:45:03;99596.00;;;22.70;65.01
9415;BME280;4746;35.664;139.738;2023-06-22T12:47:31;99599.72;;;22.66;65.03
9415;BME280;4746;35.664;139.738;2023-06-22T12:49:58;99597.94;;;22.66;64.84
9415;BME280;4746;35.664;139.738;2023-06-22T12:52:26;99592.56;;;22.69;64.94
9415;BME280;4746;35.664;139.738;2023-06-22T12:54:53;99606.63;;;22.67;64.46
9415;BME280;4746;35.664;139.738;2023-06-22T12:57:21;99598.09;;;22.63;64.73
9415;BME280;4746;35.664;139.738;2023-06-22T12:59:49;99596.63;;;22.58;64.64
9415;BME280;4746;35.664;139.738;2023-06-22T13:02:16;99586.41;;;22.53;64.50
9415;BME280;4746;35.664;139.738;2023-06-22T13:04:45;99589.88;;;22.54;64.29
9415;BME280;4746;35.664;139.738;2023-06-22T13:07:12;99582.06;;;22.54;64.55
9415;BME280;4746;35.664;139.738;2023-06-22T13:09:40;99578.66;;;22.52;64.69
9415;BME280;4746;35.664;139.738;2023-06-22T13:12:08;99571.75;;;22.51;65.02